createdAt,value
2023-11-19T00:00:41.162Z,1.30
2023-11-19T00:01:41.236Z,1.70
2023-11-19T00:02:41.344Z,2.00
2023-11-19T00:03:41.087Z,1.80
2023-11-19T00:04:41.135Z,2.90
2023-11-19T00:05:41.074Z,2.60
2023-11-19T00:06:41.047Z,2.00
2023-11-19T00:07:41.061Z,2.30
2023-11-19T00:08:41.030Z,1.60
2023-11-19T00:09:41.026Z,2.60
2023-11-19T00:10:41.032Z,2.90
2023-11-19T00:11:41.014Z,1.90
2023-11-19T00:12:40.999Z,2.00
2023-11-19T00:13:40.988Z,2.00
2023-11-19T00:14:40.976Z,1.70
2023-11-19T00:15:40.956Z,2.60
2023-11-19T00:16:40.999Z,3.00
2023-11-19T00:17:40.983Z,1.60
2023-11-19T00:18:40.957Z,0.90
2023-11-19T00:19:41.041Z,1.90
2023-11-19T00:20:41.782Z,1.40
2023-11-19T00:21:40.913Z,2.70
2023-11-19T00:22:49.240Z,1.80
2023-11-19T00:23:41.871Z,3.80
2023-11-19T00:24:40.868Z,2.30
2023-11-19T00:25:40.840Z,1.00
2023-11-19T00:26:40.832Z,1.40
2023-11-19T00:27:40.832Z,2.60
2023-11-19T00:28:40.808Z,1.80
2023-11-19T00:29:40.809Z,2.30
2023-11-19T00:30:40.797Z,1.30
2023-11-19T00:31:40.856Z,1.50
2023-11-19T00:32:40.767Z,1.60
2023-11-19T00:33:50.084Z,1.20
2023-11-19T00:34:41.810Z,1.20
2023-11-19T00:35:40.743Z,2.00
2023-11-19T00:36:40.717Z,1.70
2023-11-19T00:37:40.720Z,2.50
2023-11-19T00:38:40.699Z,2.40
2023-11-19T00:39:40.720Z,1.60
2023-11-19T00:40:41.500Z,2.40
2023-11-19T00:41:41.411Z,1.40
2023-11-19T00:42:40.681Z,1.30
2023-11-19T00:43:40.700Z,1.60
2023-11-19T00:44:50.918Z,2.00
2023-11-19T00:45:41.617Z,1.50
2023-11-19T00:46:40.679Z,1.10
2023-11-19T00:47:40.622Z,1.30
2023-11-19T00:48:40.592Z,1.80
2023-11-19T00:49:40.579Z,2.10
2023-11-19T00:50:41.984Z,1.60
2023-11-19T00:51:40.553Z,1.20
2023-11-19T00:52:40.548Z,1.10
2023-11-19T00:53:40.533Z,2.10
2023-11-19T00:54:40.519Z,5.00
2023-11-19T00:56:40.785Z,1.50
2023-11-19T00:57:40.508Z,1.70
2023-11-19T00:58:40.477Z,2.30
2023-11-19T00:59:40.461Z,5.00
2023-11-19T01:00:41.400Z,2.00
2023-11-19T01:01:41.275Z,2.90
2023-11-19T01:02:40.603Z,1.90
2023-11-19T01:03:40.622Z,3.10
2023-11-19T01:04:40.476Z,5.00
2023-11-19T01:05:40.408Z,2.10
2023-11-19T01:06:49.295Z,1.90
2023-11-19T01:07:41.387Z,2.80
2023-11-19T01:08:40.384Z,1.40
2023-11-19T01:09:40.358Z,1.90
2023-11-19T01:10:40.337Z,3.20
2023-11-19T01:11:40.333Z,3.00
2023-11-19T01:12:40.317Z,1.30
2023-11-19T01:13:40.330Z,1.60
2023-11-19T01:14:40.312Z,1.30
2023-11-19T01:15:40.335Z,1.60
2023-11-19T01:16:40.364Z,3.10
2023-11-19T01:17:40.305Z,1.30
2023-11-19T01:18:40.256Z,1.90
2023-11-19T01:19:40.252Z,2.90
2023-11-19T01:20:40.227Z,2.10
2023-11-19T01:21:41.149Z,1.70
2023-11-19T01:22:40.276Z,1.70
2023-11-19T01:23:40.216Z,1.20
2023-11-19T01:24:40.195Z,2.80
2023-11-19T01:25:40.183Z,2.00
2023-11-19T01:26:40.222Z,1.80
2023-11-19T01:27:40.172Z,1.50
2023-11-19T01:29:41.152Z,1.40
2023-11-19T01:30:40.138Z,1.10
2023-11-19T01:31:40.136Z,1.80
2023-11-19T01:32:40.152Z,1.20
2023-11-19T01:33:40.281Z,1.40
2023-11-19T01:34:40.224Z,2.80
2023-11-19T01:35:40.067Z,2.00
2023-11-19T01:36:40.058Z,3.10
2023-11-19T01:37:40.036Z,1.70
2023-11-19T01:38:40.033Z,1.70
2023-11-19T01:39:40.028Z,2.20
2023-11-19T01:40:40.084Z,2.60
2023-11-19T01:41:40.776Z,1.40
2023-11-19T01:42:40.844Z,2.80
2023-11-19T01:43:40.087Z,1.40
2023-11-19T01:44:39.995Z,1.90
2023-11-19T01:45:39.970Z,3.20
2023-11-19T01:46:40.056Z,1.10
2023-11-19T01:47:40.030Z,2.40
2023-11-19T01:48:39.922Z,1.70
2023-11-19T01:49:39.941Z,2.30
2023-11-19T01:50:39.916Z,2.70
2023-11-19T01:51:39.893Z,1.30
2023-11-19T01:52:40.130Z,1.30
2023-11-19T01:53:39.905Z,1.60
2023-11-19T01:54:39.864Z,0.90
2023-11-19T01:55:39.847Z,1.40
2023-11-19T01:56:39.832Z,1.30
2023-11-19T01:57:40.029Z,1.70
2023-11-19T01:58:39.815Z,1.20
2023-11-19T01:59:39.805Z,1.70
2023-11-19T02:00:39.786Z,1.40
2023-11-19T02:01:39.836Z,1.40
2023-11-19T02:02:40.433Z,1.80
2023-11-19T02:03:40.304Z,0.90
2023-11-19T02:04:39.796Z,2.10
2023-11-19T02:05:39.737Z,2.50
2023-11-19T02:06:39.727Z,1.30
2023-11-19T02:07:39.733Z,1.00
2023-11-19T02:08:39.774Z,1.40
2023-11-19T02:09:39.684Z,1.10
2023-11-19T02:10:39.693Z,3.20
2023-11-19T02:11:39.671Z,1.90
2023-11-19T02:12:39.664Z,2.90
2023-11-19T02:13:39.753Z,1.20
2023-11-19T02:14:39.645Z,1.00
2023-11-19T02:15:39.648Z,1.40
2023-11-19T02:16:39.725Z,1.30
2023-11-19T02:17:39.648Z,0.70
2023-11-19T02:18:39.585Z,1.30
2023-11-19T02:19:39.591Z,0.70
2023-11-19T02:20:39.564Z,0.90
2023-11-19T02:21:39.566Z,0.70
2023-11-19T02:22:39.934Z,1.90
2023-11-19T02:23:39.638Z,1.10
2023-11-19T02:24:39.517Z,1.20
2023-11-19T02:25:39.532Z,1.70
2023-11-19T02:26:39.506Z,1.40
2023-11-19T02:27:39.505Z,0.80
2023-11-19T02:28:39.483Z,0.80
2023-11-19T02:29:39.478Z,0.80
2023-11-19T02:30:39.467Z,1.30
2023-11-19T02:31:39.574Z,0.60
2023-11-19T02:32:39.454Z,1.60
2023-11-19T02:33:39.442Z,0.70
2023-11-19T02:34:39.418Z,1.20
2023-11-19T02:35:39.419Z,0.70
2023-11-19T02:36:39.411Z,1.20
2023-11-19T02:37:39.387Z,1.40
2023-11-19T02:38:39.371Z,0.80
2023-11-19T02:39:39.353Z,1.40
2023-11-19T02:40:39.354Z,0.80
2023-11-19T02:41:39.336Z,0.70
2023-11-19T02:42:39.323Z,2.20
2023-11-19T02:43:40.170Z,0.80
2023-11-19T02:44:39.331Z,1.10
2023-11-19T02:45:39.350Z,1.90
2023-11-19T02:46:39.342Z,2.10
2023-11-19T02:47:39.343Z,2.70
2023-11-19T02:48:39.255Z,2.80
2023-11-19T02:49:39.281Z,1.00
2023-11-19T02:50:39.240Z,1.10
2023-11-19T02:51:39.224Z,0.80
2023-11-19T02:52:39.262Z,1.10
2023-11-19T02:53:39.208Z,1.80
2023-11-19T02:54:39.199Z,1.50
2023-11-19T02:55:39.367Z,2.00
2023-11-19T02:56:39.176Z,1.00
2023-11-19T02:57:39.162Z,2.10
2023-11-19T02:58:39.143Z,1.10
2023-11-19T02:59:39.138Z,1.10
2023-11-19T03:00:39.137Z,1.00
2023-11-19T03:01:39.204Z,1.60
2023-11-19T03:02:39.201Z,1.60
2023-11-19T03:03:39.420Z,1.20
2023-11-19T03:04:39.167Z,2.40
2023-11-19T03:05:39.091Z,1.10
2023-11-19T03:06:39.108Z,1.10
2023-11-19T03:07:39.064Z,1.20
2023-11-19T03:08:39.103Z,1.40
2023-11-19T03:09:39.041Z,1.10
2023-11-19T03:10:39.053Z,2.20
2023-11-19T03:11:39.003Z,3.50
2023-11-19T03:12:39.045Z,1.10
2023-11-19T03:13:39.044Z,1.70
2023-11-19T03:14:39.029Z,2.70
2023-11-19T03:15:39.146Z,1.10
2023-11-19T03:16:39.025Z,1.50
2023-11-19T03:17:38.966Z,1.00
2023-11-19T03:18:38.933Z,1.70
2023-11-19T03:19:38.949Z,2.00
2023-11-19T03:20:38.914Z,4.10
2023-11-19T03:21:38.896Z,2.80
2023-11-19T03:22:38.879Z,1.50
2023-11-19T03:23:38.864Z,1.70
2023-11-19T03:24:39.826Z,2.80
2023-11-19T03:25:38.923Z,3.00
2023-11-19T03:26:38.825Z,2.60
2023-11-19T03:27:38.826Z,1.70
2023-11-19T03:28:38.825Z,1.20
2023-11-19T03:29:38.789Z,1.10
2023-11-19T03:30:38.814Z,1.50
2023-11-19T03:31:39.071Z,4.40
2023-11-19T03:32:39.312Z,4.60
2023-11-19T03:33:39.074Z,2.50
2023-11-19T03:34:38.763Z,3.40
2023-11-19T03:35:38.760Z,2.30
2023-11-19T03:36:38.724Z,3.00
2023-11-19T03:37:38.710Z,1.00
2023-11-19T03:38:38.703Z,3.00
2023-11-19T03:39:38.691Z,1.60
2023-11-19T03:40:38.736Z,1.70
2023-11-19T03:42:38.712Z,1.30
2023-11-19T03:43:38.638Z,1.90
2023-11-19T03:44:39.445Z,2.00
2023-11-19T03:45:39.557Z,2.40
2023-11-19T03:46:38.909Z,1.90
2023-11-19T03:47:38.664Z,2.50
2023-11-19T03:48:38.585Z,1.10
2023-11-19T03:49:38.590Z,3.60
2023-11-19T03:50:38.582Z,1.20
2023-11-19T03:51:38.549Z,1.50
2023-11-19T03:53:38.536Z,1.60
2023-11-19T03:54:38.532Z,2.20
2023-11-19T03:55:38.549Z,2.50
2023-11-19T03:56:38.513Z,1.40
2023-11-19T03:57:38.492Z,2.40
2023-11-19T03:58:38.474Z,1.50
2023-11-19T03:59:38.511Z,1.30
2023-11-19T04:00:38.454Z,3.60
2023-11-19T04:01:38.558Z,1.40
2023-11-19T04:02:38.587Z,3.40
2023-11-19T04:04:39.486Z,1.90
2023-11-19T04:05:39.137Z,2.50
2023-11-19T04:06:38.408Z,2.90
2023-11-19T04:07:46.845Z,1.70
2023-11-19T04:08:38.396Z,3.10
2023-11-19T04:09:38.388Z,1.30
2023-11-19T04:10:38.373Z,3.30
2023-11-19T04:11:38.350Z,2.10
2023-11-19T04:12:38.347Z,1.40
2023-11-19T04:13:38.322Z,2.30
2023-11-19T04:14:38.355Z,2.50
2023-11-19T04:15:38.317Z,1.50
2023-11-19T04:16:38.366Z,3.60
2023-11-19T04:17:38.305Z,1.50
2023-11-19T04:18:38.265Z,1.20
2023-11-19T04:19:38.312Z,2.60
2023-11-19T04:20:38.262Z,1.20
2023-11-19T04:21:38.276Z,1.40
2023-11-19T04:22:38.287Z,2.90
2023-11-19T04:23:38.225Z,3.00
2023-11-19T04:24:38.201Z,1.80
2023-11-19T04:25:38.245Z,2.20
2023-11-19T04:26:38.212Z,2.00
2023-11-19T04:27:38.184Z,3.30
2023-11-19T04:28:38.158Z,4.90
2023-11-19T04:29:38.157Z,2.10
2023-11-19T04:30:38.134Z,2.70
2023-11-19T04:31:38.245Z,1.30
2023-11-19T04:32:38.147Z,2.10
2023-11-19T04:33:38.091Z,2.20
2023-11-19T04:34:38.099Z,5.10
2023-11-19T04:35:38.082Z,2.80
2023-11-19T04:36:38.069Z,2.30
2023-11-19T04:37:38.070Z,3.10
2023-11-19T04:38:38.082Z,2.90
2023-11-19T04:39:38.044Z,4.30
2023-11-19T04:40:38.061Z,1.00
2023-11-19T04:41:38.038Z,1.50
2023-11-19T04:42:38.026Z,2.10
2023-11-19T04:43:38.079Z,3.60
2023-11-19T04:44:38.015Z,1.60
2023-11-19T04:45:37.990Z,1.60
2023-11-19T04:46:38.051Z,1.40
2023-11-19T04:47:37.991Z,3.40
2023-11-19T04:49:37.959Z,4.70
2023-11-19T04:50:37.932Z,1.50
2023-11-19T04:51:37.896Z,2.00
2023-11-19T04:52:37.936Z,1.40
2023-11-19T04:53:37.898Z,2.20
2023-11-19T04:54:37.900Z,3.80
2023-11-19T04:55:37.869Z,2.60
2023-11-19T04:56:37.882Z,2.00
2023-11-19T04:57:37.824Z,2.80
2023-11-19T04:58:37.850Z,1.70
2023-11-19T04:59:37.824Z,5.30
2023-11-19T05:00:37.810Z,2.20
2023-11-19T05:01:37.803Z,2.20
2023-11-19T05:02:37.880Z,3.10
2023-11-19T05:03:37.977Z,4.50
2023-11-19T05:04:37.816Z,2.60
2023-11-19T05:05:38.544Z,2.60
2023-11-19T05:06:38.489Z,5.10
2023-11-19T05:07:38.661Z,1.40
2023-11-19T05:08:37.724Z,3.20
2023-11-19T05:09:37.729Z,3.40
2023-11-19T05:10:37.703Z,3.70
2023-11-19T05:11:51.360Z,1.70
2023-11-19T05:12:38.698Z,3.60
2023-11-19T05:13:37.692Z,0.90
2023-11-19T05:14:37.647Z,3.80
2023-11-19T05:15:37.649Z,4.80
2023-11-19T05:16:37.741Z,2.10
2023-11-19T05:17:37.711Z,3.40
2023-11-19T05:18:38.296Z,4.60
2023-11-19T05:19:37.632Z,3.90
2023-11-19T05:20:37.572Z,1.50
2023-11-19T05:21:37.630Z,4.40
2023-11-19T05:22:37.584Z,4.30
2023-11-19T05:23:37.547Z,2.40
2023-11-19T05:24:37.581Z,4.60
2023-11-19T05:25:37.576Z,3.30
2023-11-19T05:26:37.521Z,4.40
2023-11-19T05:27:38.303Z,3.60
2023-11-19T05:28:37.584Z,2.90
2023-11-19T05:29:37.475Z,4.40
2023-11-19T05:30:37.529Z,2.20
2023-11-19T05:31:38.696Z,3.40
2023-11-19T05:32:37.442Z,5.20
2023-11-19T05:33:37.524Z,4.10
2023-11-19T05:34:37.449Z,4.80
2023-11-19T05:35:37.401Z,2.70
2023-11-19T05:36:37.459Z,5.60
2023-11-19T05:37:37.392Z,7.80
2023-11-19T05:38:37.398Z,4.20
2023-11-19T05:39:37.429Z,4.70
2023-11-19T05:40:37.373Z,5.10
2023-11-19T05:41:37.374Z,5.60
2023-11-19T05:42:37.338Z,4.60
2023-11-19T05:43:37.368Z,4.30
2023-11-19T05:44:39.825Z,4.60
2023-11-19T05:45:37.278Z,3.90
2023-11-19T05:46:37.380Z,4.70
2023-11-19T05:47:38.221Z,4.40
2023-11-19T05:48:38.047Z,3.60
2023-11-19T05:49:37.267Z,3.60
2023-11-19T05:50:37.282Z,3.00
2023-11-19T05:51:37.230Z,4.30
2023-11-19T05:52:37.226Z,4.10
2023-11-19T05:53:37.208Z,6.70
2023-11-19T05:54:37.682Z,4.10
2023-11-19T05:55:37.486Z,3.50
2023-11-19T05:56:37.189Z,4.60
2023-11-19T05:57:46.853Z,4.40
2023-11-19T05:58:38.167Z,6.10
2023-11-19T05:59:37.138Z,4.40
2023-11-19T06:00:37.467Z,5.10
2023-11-19T06:01:37.154Z,4.70
2023-11-19T06:02:37.101Z,6.20
2023-11-19T06:03:37.171Z,7.30
2023-11-19T06:04:37.142Z,6.10
2023-11-19T06:05:37.091Z,3.90
2023-11-19T06:06:37.244Z,4.70
2023-11-19T06:07:37.141Z,6.90
2023-11-19T06:08:37.814Z,7.10
2023-11-19T06:09:37.025Z,4.80
2023-11-19T06:10:37.050Z,9.00
2023-11-19T06:11:37.098Z,5.10
2023-11-19T06:12:36.987Z,5.80
2023-11-19T06:13:37.000Z,5.10
2023-11-19T06:14:36.969Z,11.40
2023-11-19T06:15:36.956Z,9.00
2023-11-19T06:16:37.038Z,4.30
2023-11-19T06:17:37.195Z,7.10
2023-11-19T06:18:37.017Z,10.10
2023-11-19T06:19:36.941Z,7.10
2023-11-19T06:21:36.909Z,7.40
2023-11-19T06:22:36.939Z,11.90
2023-11-19T06:23:36.867Z,8.70
2023-11-19T06:24:38.388Z,11.70
2023-11-19T06:25:36.976Z,8.80
2023-11-19T06:26:36.836Z,12.30
2023-11-19T06:27:36.822Z,11.60
2023-11-19T06:28:36.836Z,9.40
2023-11-19T06:29:36.807Z,11.50
2023-11-19T06:30:36.850Z,6.70
2023-11-19T06:31:36.814Z,5.40
2023-11-19T06:32:36.937Z,8.60
2023-11-19T06:33:36.952Z,9.00
2023-11-19T06:34:36.778Z,12.20
2023-11-19T06:35:36.745Z,10.20
2023-11-19T06:36:36.794Z,10.20
2023-11-19T06:37:36.787Z,10.70
2023-11-19T06:38:36.783Z,8.70
2023-11-19T06:39:36.746Z,7.40
2023-11-19T06:40:36.844Z,6.60
2023-11-19T06:41:36.682Z,10.30
2023-11-19T06:42:36.665Z,11.80
2023-11-19T06:44:36.734Z,9.60
2023-11-19T06:45:36.627Z,11.10
2023-11-19T06:46:36.623Z,12.50
2023-11-19T06:47:36.624Z,11.10
2023-11-19T06:48:36.621Z,15.70
2023-11-19T06:49:36.604Z,14.70
2023-11-19T06:50:36.756Z,8.80
2023-11-19T06:51:36.559Z,10.40
2023-11-19T06:52:36.611Z,13.80
2023-11-19T06:53:36.540Z,11.30
2023-11-19T06:54:36.527Z,11.30
2023-11-19T06:55:36.784Z,16.20
2023-11-19T06:56:36.509Z,10.90
2023-11-19T06:57:36.558Z,13.80
2023-11-19T06:58:36.485Z,13.30
2023-11-19T06:59:36.471Z,13.50
2023-11-19T07:00:36.462Z,13.40
2023-11-19T07:01:36.442Z,10.50
2023-11-19T07:02:36.582Z,17.60
2023-11-19T07:03:36.486Z,15.70
2023-11-19T07:04:36.407Z,11.20
2023-11-19T07:05:36.409Z,10.00
2023-11-19T07:06:36.398Z,10.40
2023-11-19T07:07:36.380Z,13.60
2023-11-19T07:08:37.030Z,8.80
2023-11-19T07:09:37.205Z,10.10
2023-11-19T07:10:36.442Z,11.80
2023-11-19T07:11:36.341Z,9.80
2023-11-19T07:12:37.047Z,14.40
2023-11-19T07:13:36.346Z,11.40
2023-11-19T07:14:36.323Z,11.20
2023-11-19T07:15:36.315Z,13.20
2023-11-19T07:16:36.331Z,14.00
2023-11-19T07:17:36.434Z,11.70
2023-11-19T07:18:36.256Z,18.10
2023-11-19T07:19:36.237Z,17.00
2023-11-19T07:20:36.253Z,16.60
2023-11-19T07:21:36.310Z,15.80
2023-11-19T07:22:36.207Z,16.50
2023-11-19T07:23:36.223Z,12.90
2023-11-19T07:24:36.167Z,12.70
2023-11-19T07:25:36.186Z,10.60
2023-11-19T07:26:36.170Z,17.60
2023-11-19T07:27:36.204Z,13.30
2023-11-19T07:28:36.195Z,16.80
2023-11-19T07:29:39.087Z,14.40
2023-11-19T07:30:36.955Z,16.70
2023-11-19T07:31:36.144Z,18.60
2023-11-19T07:32:36.115Z,12.70
2023-11-19T07:33:36.133Z,14.20
2023-11-19T07:34:36.215Z,11.90
2023-11-19T07:35:36.093Z,10.60
2023-11-19T07:36:36.073Z,13.70
2023-11-19T07:37:36.066Z,15.80
2023-11-19T07:38:36.024Z,15.70
2023-11-19T07:39:36.012Z,14.70
2023-11-19T07:40:36.075Z,16.00
2023-11-19T07:41:36.030Z,15.60
2023-11-19T07:42:35.978Z,11.70
2023-11-19T07:43:35.988Z,16.10
2023-11-19T07:44:36.025Z,22.10
2023-11-19T07:45:36.269Z,14.10
2023-11-19T07:46:35.974Z,18.60
2023-11-19T07:47:35.992Z,19.80
2023-11-19T07:48:35.892Z,11.00
2023-11-19T07:49:36.731Z,15.00
2023-11-19T07:50:36.741Z,14.10
2023-11-19T07:51:35.885Z,17.90
2023-11-19T07:52:35.865Z,17.50
2023-11-19T07:53:35.883Z,16.50
2023-11-19T07:54:35.836Z,18.90
2023-11-19T07:55:35.821Z,17.40
2023-11-19T07:56:36.251Z,15.80
2023-11-19T07:57:35.838Z,18.90
2023-11-19T07:58:35.860Z,23.60
2023-11-19T07:59:36.047Z,13.00
2023-11-19T08:00:35.770Z,11.80
2023-11-19T08:01:36.372Z,16.80
2023-11-19T08:02:35.838Z,20.40
2023-11-19T08:03:36.291Z,18.80
2023-11-19T08:04:35.929Z,16.80
2023-11-19T08:05:35.774Z,20.40
2023-11-19T08:06:36.498Z,14.90
2023-11-19T08:07:35.721Z,17.00
2023-11-19T08:08:35.890Z,15.00
2023-11-19T08:09:35.712Z,17.50
2023-11-19T08:10:35.695Z,19.60
2023-11-19T08:11:36.518Z,13.80
2023-11-19T08:12:35.809Z,12.50
2023-11-19T08:13:35.616Z,14.90
2023-11-19T08:14:35.643Z,12.70
2023-11-19T08:15:35.609Z,12.00
2023-11-19T08:16:35.599Z,12.70
2023-11-19T08:17:35.725Z,11.10
2023-11-19T08:18:35.620Z,12.30
2023-11-19T08:19:35.919Z,14.70
2023-11-19T08:20:35.585Z,15.90
2023-11-19T08:21:35.542Z,20.20
2023-11-19T08:22:35.544Z,17.40
2023-11-19T08:23:36.540Z,19.80
2023-11-19T08:24:35.486Z,15.00
2023-11-19T08:25:35.504Z,18.80
2023-11-19T08:26:35.636Z,10.80
2023-11-19T08:27:35.471Z,21.10
2023-11-19T08:28:36.066Z,16.40
2023-11-19T08:29:35.496Z,15.20
2023-11-19T08:30:35.450Z,11.80
2023-11-19T08:31:35.486Z,11.60
2023-11-19T08:32:35.509Z,18.50
2023-11-19T08:33:35.425Z,14.40
2023-11-19T08:34:35.379Z,19.00
2023-11-19T08:35:35.424Z,17.70
2023-11-19T08:36:35.358Z,13.30
2023-11-19T08:37:35.353Z,12.40
2023-11-19T08:38:35.382Z,19.00
2023-11-19T08:39:35.345Z,17.40
2023-11-19T08:40:35.357Z,14.40
2023-11-19T08:41:35.296Z,12.30
2023-11-19T08:42:35.310Z,12.60
2023-11-19T08:43:35.303Z,19.20
2023-11-19T08:44:35.383Z,14.70
2023-11-19T08:45:35.277Z,16.90
2023-11-19T08:46:35.246Z,15.30
2023-11-19T08:47:35.323Z,14.60
2023-11-19T08:48:35.212Z,14.50
2023-11-19T08:49:35.221Z,12.30
2023-11-19T08:50:35.264Z,15.10
2023-11-19T08:51:36.106Z,19.40
2023-11-19T08:52:36.011Z,12.40
2023-11-19T08:53:35.404Z,12.70
2023-11-19T08:54:35.181Z,12.70
2023-11-19T08:55:35.159Z,14.50
2023-11-19T08:56:35.156Z,12.60
2023-11-19T08:57:35.127Z,14.30
2023-11-19T08:58:35.111Z,13.20
2023-11-19T08:59:35.144Z,16.40
2023-11-19T09:00:35.093Z,15.50
2023-11-19T09:01:35.225Z,16.40
2023-11-19T09:02:35.099Z,20.60
2023-11-19T09:03:35.203Z,18.10
2023-11-19T09:04:35.186Z,16.20
2023-11-19T09:05:35.078Z,12.40
2023-11-19T09:06:35.011Z,17.40
2023-11-19T09:07:35.039Z,12.80
2023-11-19T09:08:35.081Z,15.50
2023-11-19T09:09:35.008Z,13.50
2023-11-19T09:10:34.980Z,13.30
2023-11-19T09:11:35.060Z,14.10
2023-11-19T09:12:34.966Z,15.60
2023-11-19T09:13:34.965Z,17.80
2023-11-19T09:14:35.039Z,12.90
2023-11-19T09:15:34.936Z,12.80
2023-11-19T09:16:34.906Z,13.90
2023-11-19T09:17:34.964Z,18.50
2023-11-19T09:18:34.931Z,14.10
2023-11-19T09:19:34.873Z,11.60
2023-11-19T09:20:34.879Z,15.40
2023-11-19T09:21:34.862Z,14.30
2023-11-19T09:22:34.830Z,15.10
2023-11-19T09:23:34.849Z,15.90
2023-11-19T09:24:34.803Z,14.80
2023-11-19T09:26:34.792Z,13.80
2023-11-19T09:27:34.784Z,11.70
2023-11-19T09:28:34.802Z,13.30
2023-11-19T09:29:34.875Z,14.00
2023-11-19T09:30:34.953Z,18.90
2023-11-19T09:31:34.780Z,11.70
2023-11-19T09:32:34.830Z,14.70
2023-11-19T09:33:34.964Z,12.30
2023-11-19T09:34:34.700Z,11.70
2023-11-19T09:35:34.744Z,12.80
2023-11-19T09:36:34.697Z,13.70
2023-11-19T09:37:34.667Z,15.30
2023-11-19T09:38:34.756Z,12.80
2023-11-19T09:39:34.696Z,19.20
2023-11-19T09:40:34.645Z,16.90
2023-11-19T09:41:34.723Z,12.80
2023-11-19T09:42:34.633Z,15.00
2023-11-19T09:43:34.624Z,14.50
2023-11-19T09:44:34.624Z,16.10
2023-11-19T09:45:34.650Z,10.30
2023-11-19T09:46:34.558Z,15.90
2023-11-19T09:47:34.604Z,10.60
2023-11-19T09:48:34.551Z,16.70
2023-11-19T09:49:36.400Z,13.30
2023-11-19T09:50:34.580Z,15.40
2023-11-19T09:51:34.530Z,15.50
2023-11-19T09:52:34.975Z,14.90
2023-11-19T09:53:34.538Z,21.30
2023-11-19T09:54:34.493Z,22.30
2023-11-19T09:55:34.473Z,15.60
2023-11-19T09:56:34.555Z,19.40
2023-11-19T09:57:34.451Z,18.10
2023-11-19T09:58:34.440Z,16.50
2023-11-19T09:59:34.599Z,12.10
2023-11-19T10:00:34.404Z,17.70
2023-11-19T10:01:34.438Z,12.30
2023-11-19T10:02:34.647Z,19.00
2023-11-19T10:03:34.479Z,16.50
2023-11-19T10:04:34.423Z,18.80
2023-11-19T10:05:34.421Z,14.90
2023-11-19T10:06:34.365Z,15.40
2023-11-19T10:07:34.343Z,14.30
2023-11-19T10:08:34.401Z,17.10
2023-11-19T10:09:34.318Z,13.40
2023-11-19T10:10:34.291Z,14.20
2023-11-19T10:11:34.310Z,17.50
2023-11-19T10:12:34.296Z,14.60
2023-11-19T10:13:35.031Z,17.90
2023-11-19T10:14:34.534Z,16.60
2023-11-19T10:15:34.259Z,15.10
2023-11-19T10:16:34.425Z,14.10
2023-11-19T10:17:34.519Z,16.90
2023-11-19T10:18:34.216Z,13.60
2023-11-19T10:19:34.261Z,14.90
2023-11-19T10:20:34.249Z,17.60
2023-11-19T10:21:34.446Z,16.30
2023-11-19T10:22:34.228Z,15.80
2023-11-19T10:23:34.192Z,18.70
2023-11-19T10:24:34.284Z,10.10
2023-11-19T10:25:34.171Z,19.50
2023-11-19T10:26:34.188Z,12.10
2023-11-19T10:27:34.226Z,13.20
2023-11-19T10:28:34.351Z,9.90
2023-11-19T10:29:35.279Z,13.00
2023-11-19T10:30:34.330Z,14.10
2023-11-19T10:31:34.228Z,14.00
2023-11-19T10:32:34.237Z,14.60
2023-11-19T10:33:34.177Z,18.70
2023-11-19T10:34:34.941Z,13.40
2023-11-19T10:35:34.195Z,14.90
2023-11-19T10:36:34.153Z,16.20
2023-11-19T10:37:34.441Z,13.30
2023-11-19T10:38:34.075Z,15.20
2023-11-19T10:39:34.006Z,18.10
2023-11-19T10:40:33.971Z,13.80
2023-11-19T10:41:34.070Z,14.90
2023-11-19T10:42:34.141Z,13.70
2023-11-19T10:43:34.019Z,15.90
2023-11-19T10:44:33.960Z,14.90
2023-11-19T10:45:33.942Z,13.30
2023-11-19T10:46:33.952Z,15.20
2023-11-19T10:48:33.998Z,12.10
2023-11-19T10:49:33.990Z,14.10
2023-11-19T10:50:33.923Z,15.40
2023-11-19T10:51:33.912Z,22.10
2023-11-19T10:52:33.863Z,19.50
2023-11-19T10:53:35.573Z,17.90
2023-11-19T10:54:34.777Z,20.60
2023-11-19T10:55:34.684Z,18.20
2023-11-19T10:56:33.864Z,14.60
2023-11-19T10:57:33.841Z,15.30
2023-11-19T10:58:33.795Z,13.80
2023-11-19T10:59:34.733Z,20.90
2023-11-19T11:00:33.806Z,15.40
2023-11-19T11:01:33.763Z,17.10
2023-11-19T11:02:34.028Z,20.00
2023-11-19T11:03:34.045Z,12.40
2023-11-19T11:04:33.731Z,19.20
2023-11-19T11:05:34.603Z,16.60
2023-11-19T11:06:33.748Z,17.20
2023-11-19T11:07:39.869Z,12.40
2023-11-19T11:08:34.743Z,13.90
2023-11-19T11:09:33.818Z,15.10
2023-11-19T11:10:33.660Z,11.50
2023-11-19T11:11:33.648Z,16.90
2023-11-19T11:12:33.671Z,15.90
2023-11-19T11:13:33.641Z,11.40
2023-11-19T11:14:33.999Z,12.90
2023-11-19T11:15:34.570Z,18.40
2023-11-19T11:16:33.652Z,21.30
2023-11-19T11:17:33.786Z,14.00
2023-11-19T11:18:33.650Z,11.80
2023-11-19T11:19:33.577Z,13.30
2023-11-19T11:20:33.539Z,15.30
2023-11-19T11:21:33.706Z,15.80
2023-11-19T11:22:35.457Z,15.80
2023-11-19T11:23:33.708Z,16.20
2023-11-19T11:24:33.649Z,16.80
2023-11-19T11:25:33.507Z,19.00
2023-11-19T11:26:33.579Z,14.90
2023-11-19T11:27:33.643Z,15.50
2023-11-19T11:28:33.555Z,19.90
2023-11-19T11:29:33.468Z,15.80
2023-11-19T11:30:33.512Z,15.70
2023-11-19T11:31:33.507Z,15.60
2023-11-19T11:32:33.543Z,16.90
2023-11-19T11:33:33.441Z,13.00
2023-11-19T11:34:33.423Z,17.40
2023-11-19T11:35:33.415Z,12.90
2023-11-19T11:36:33.430Z,14.80
2023-11-19T11:37:33.412Z,10.90
2023-11-19T11:38:33.377Z,15.60
2023-11-19T11:39:33.377Z,14.60
2023-11-19T11:40:33.341Z,13.20
2023-11-19T11:41:33.450Z,14.20
2023-11-19T11:42:33.348Z,12.70
2023-11-19T11:43:33.317Z,13.90
2023-11-19T11:44:33.295Z,17.20
2023-11-19T11:46:33.646Z,18.00
2023-11-19T11:47:33.295Z,18.00
2023-11-19T11:48:33.256Z,12.30
2023-11-19T11:49:33.209Z,12.80
2023-11-19T11:50:33.216Z,13.60
2023-11-19T11:51:33.273Z,11.00
2023-11-19T11:52:33.244Z,17.30
2023-11-19T11:53:33.214Z,17.60
2023-11-19T11:54:33.297Z,15.80
2023-11-19T11:55:33.431Z,15.20
2023-11-19T11:56:33.193Z,15.20
2023-11-19T11:57:33.251Z,19.50
2023-11-19T11:58:33.202Z,18.60
2023-11-19T11:59:33.236Z,11.00
2023-11-19T12:00:33.237Z,18.10
2023-11-19T12:01:33.181Z,11.70
2023-11-19T12:02:33.212Z,13.20
2023-11-19T12:03:33.298Z,15.90
2023-11-19T12:04:33.135Z,15.00
2023-11-19T12:05:33.158Z,13.50
2023-11-19T12:06:33.076Z,13.50
2023-11-19T12:07:33.106Z,19.40
2023-11-19T12:08:33.061Z,13.50
2023-11-19T12:09:33.097Z,17.40
2023-11-19T12:10:33.449Z,18.00
2023-11-19T12:11:33.053Z,13.50
2023-11-19T12:12:33.028Z,15.50
2023-11-19T12:13:33.051Z,15.90
2023-11-19T12:14:32.966Z,12.70
2023-11-19T12:15:33.003Z,15.60
2023-11-19T12:16:33.898Z,18.20
2023-11-19T12:17:33.040Z,16.00
2023-11-19T12:18:32.990Z,17.90
2023-11-19T12:19:32.979Z,15.60
2023-11-19T12:20:34.680Z,16.20
2023-11-19T12:21:32.987Z,15.30
2023-11-19T12:22:32.899Z,15.10
2023-11-19T12:23:32.906Z,15.10
2023-11-19T12:24:32.909Z,17.10
2023-11-19T12:25:32.873Z,17.20
2023-11-19T12:26:32.895Z,16.00
2023-11-19T12:27:32.911Z,14.70
2023-11-19T12:28:32.863Z,15.10
2023-11-19T12:29:32.821Z,18.50
2023-11-19T12:30:32.951Z,12.00
2023-11-19T12:31:32.896Z,15.50
2023-11-19T12:32:32.814Z,15.50
2023-11-19T12:33:32.867Z,14.60
2023-11-19T12:34:32.873Z,15.10
2023-11-19T12:35:32.768Z,15.70
2023-11-19T12:36:32.769Z,18.80
2023-11-19T12:37:33.495Z,15.70
2023-11-19T12:38:32.785Z,12.30
2023-11-19T12:39:32.727Z,11.80
2023-11-19T12:40:32.809Z,8.10
2023-11-19T12:41:32.691Z,14.50
2023-11-19T12:42:32.726Z,12.80
2023-11-19T12:43:32.701Z,14.50
2023-11-19T12:44:32.692Z,16.80
2023-11-19T12:45:32.688Z,14.70
2023-11-19T12:46:32.732Z,12.20
2023-11-19T12:47:32.727Z,11.60
2023-11-19T12:48:32.645Z,11.90
2023-11-19T12:49:32.633Z,12.00
2023-11-19T12:50:32.598Z,14.20
2023-11-19T12:51:32.626Z,11.90
2023-11-19T12:52:32.581Z,11.80
2023-11-19T12:53:32.605Z,8.90
2023-11-19T12:54:32.625Z,9.20
2023-11-19T12:55:32.597Z,10.30
2023-11-19T12:56:33.652Z,11.10
2023-11-19T12:57:33.399Z,12.70
2023-11-19T12:58:33.193Z,10.00
2023-11-19T12:59:33.677Z,13.00
2023-11-19T13:00:32.555Z,12.30
2023-11-19T13:01:32.577Z,10.30
2023-11-19T13:02:32.562Z,13.50
2023-11-19T13:03:32.475Z,12.40
2023-11-19T13:04:32.474Z,12.70
2023-11-19T13:05:32.439Z,12.20
2023-11-19T13:06:32.433Z,14.00
2023-11-19T13:07:32.442Z,11.50
2023-11-19T13:08:32.412Z,12.10
2023-11-19T13:09:32.404Z,12.40
2023-11-19T13:10:32.367Z,12.70
2023-11-19T13:11:32.639Z,13.40
2023-11-19T13:12:32.416Z,8.90
2023-11-19T13:13:32.359Z,11.50
2023-11-19T13:14:32.348Z,17.50
2023-11-19T13:15:32.343Z,12.50
2023-11-19T13:16:32.559Z,10.90